sensor_id;sensor_type;location;lat;lon;timestamp;temperature;humidity
4701;DHT22;8724;51.272;6.554;2022-12-08T00:01:58;7.80;99.90
4701;DHT22;8724;51.272;6.554;2022-12-08T00:04:26;7.80;99.90
4701;DHT22;8724;51.272;6.554;2022-12-08T00:06:56;7.80;99.90
4701;DHT22;8724;51.272;6.554;2022-12-08T00:09:41;7.80;99.90
4701;DHT22;8724;51.272;6.554;2022-12-08T00:12:11;7.80;99.90
4701;DHT22;8724;51.272;6.554;2022-12-08T00:14:42;7.70;99.90
4701;DHT22;8724;51.272;6.554;2022-12-08T00:17:13;7.70;99.90
4701;DHT22;8724;51.272;6.554;2022-12-08T00:19:42;7.70;99.90
4701;DHT22;8724;51.272;6.554;2022-12-08T00:22:12;7.70;99.90
4701;DHT22;8724;51.272;6.554;2022-12-08T00:24:42;7.70;99.90
4701;DHT22;8724;51.272;6.554;2022-12-08T00:27:14;7.70;99.90
4701;DHT22;8724;51.272;6.554;2022-12-08T00:29:44;7.70;99.90
4701;DHT22;8724;51.272;6.554;2022-12-08T00:32:12;7.70;99.90
4701;DHT22;8724;51.272;6.554;2022-12-08T00:34:41;7.70;99.90
4701;DHT22;8724;51.272;6.554;2022-12-08T00:37:09;7.70;99.90
4701;DHT22;8724;51.272;6.554;2022-12-08T00:39:39;7.70;99.90
4701;DHT22;8724;51.272;6.554;2022-12-08T00:42:08;7.70;99.90
4701;DHT22;8724;51.272;6.554;2022-12-08T00:44:39;7.70;99.90
4701;DHT22;8724;51.272;6.554;2022-12-08T00:47:07;7.70;99.90
4701;DHT22;8724;51.272;6.554;2022-12-08T00:49:36;7.70;99.90
4701;DHT22;8724;51.272;6.554;2022-12-08T00:52:04;7.70;99.90
4701;DHT22;8724;51.272;6.554;2022-12-08T00:54:32;7.70;99.90
4701;DHT22;8724;51.272;6.554;2022-12-08T00:57:02;7.70;99.90
4701;DHT22;8724;51.272;6.554;2022-12-08T00:59:30;7.70;99.90
4701;DHT22;8724;51.272;6.554;2022-12-08T01:01:59;7.70;99.90
4701;DHT22;8724;51.272;6.554;2022-12-08T01:04:27;7.70;99.90
4701;DHT22;8724;51.272;6.554;2022-12-08T01:06:55;7.70;99.90
4701;DHT22;8724;51.272;6.554;2022-12-08T01:09:24;7.70;99.90
4701;DHT22;8724;51.272;6.554;2022-12-08T01:11:52;7.70;99.90
4701;DHT22;8724;51.272;6.554;2022-12-08T01:14:21;7.70;99.90
4701;DHT22;8724;51.272;6.554;2022-12-08T01:16:50;8.00;99.90
4701;DHT22;8724;51.272;6.554;2022-12-08T01:19:18;7.70;99.90
4701;DHT22;8724;51.272;6.554;2022-12-08T01:21:46;7.70;99.90
4701;DHT22;8724;51.272;6.554;2022-12-08T01:24:16;7.70;99.90
4701;DHT22;8724;51.272;6.554;2022-12-08T01:26:44;7.70;99.90
4701;DHT22;8724;51.272;6.554;2022-12-08T01:29:13;7.60;99.90
4701;DHT22;8724;51.272;6.554;2022-12-08T01:31:43;7.70;99.90
4701;DHT22;8724;51.272;6.554;2022-12-08T01:34:11;7.60;99.90
4701;DHT22;8724;51.272;6.554;2022-12-08T01:36:40;7.70;99.90
4701;DHT22;8724;51.272;6.554;2022-12-08T01:39:14;7.60;99.90
4701;DHT22;8724;51.272;6.554;2022-12-08T01:41:43;7.60;99.90
4701;DHT22;8724;51.272;6.554;2022-12-08T01:47:35;7.60;99.90
4701;DHT22;8724;51.272;6.554;2022-12-08T01:50:07;7.60;99.90
4701;DHT22;8724;51.272;6.554;2022-12-08T01:52:39;7.60;99.90
4701;DHT22;8724;51.272;6.554;2022-12-08T01:55:14;7.70;99.90
4701;DHT22;8724;51.272;6.554;2022-12-08T01:57:45;7.70;99.90
4701;DHT22;8724;51.272;6.554;2022-12-08T02:00:17;7.70;99.90
4701;DHT22;8724;51.272;6.554;2022-12-08T02:02:52;7.70;99.90
4701;DHT22;8724;51.272;6.554;2022-12-08T02:05:23;7.70;99.90
4701;DHT22;8724;51.272;6.554;2022-12-08T02:07:54;7.70;99.90
4701;DHT22;8724;51.272;6.554;2022-12-08T02:10:27;7.70;99.90
4701;DHT22;8724;51.272;6.554;2022-12-08T02:12:56;7.70;99.90
4701;DHT22;8724;51.272;6.554;2022-12-08T02:15:34;7.70;99.90
4701;DHT22;8724;51.272;6.554;2022-12-08T02:18:17;7.70;99.90
4701;DHT22;8724;51.272;6.554;2022-12-08T02:20:54;7.70;99.90
4701;DHT22;8724;51.272;6.554;2022-12-08T02:23:30;7.70;99.90
4701;DHT22;8724;51.272;6.554;2022-12-08T02:26:16;7.70;99.90
4701;DHT22;8724;51.272;6.554;2022-12-08T02:29:15;7.30;99.90
4701;DHT22;8724;51.272;6.554;2022-12-08T02:32:02;7.60;99.90
4701;DHT22;8724;51.272;6.554;2022-12-08T02:34:42;7.70;99.90
4701;DHT22;8724;51.272;6.554;2022-12-08T02:37:17;7.70;99.90
4701;DHT22;8724;51.272;6.554;2022-12-08T02:39:51;7.70;99.90
4701;DHT22;8724;51.272;6.554;2022-12-08T02:42:26;7.70;99.90
4701;DHT22;8724;51.272;6.554;2022-12-08T02:45:01;7.70;99.90
4701;DHT22;8724;51.272;6.554;2022-12-08T02:47:31;7.70;99.90
4701;DHT22;8724;51.272;6.554;2022-12-08T02:50:02;7.70;99.90
4701;DHT22;8724;51.272;6.554;2022-12-08T02:52:45;7.70;99.90
4701;DHT22;8724;51.272;6.554;2022-12-08T02:55:19;7.70;99.90
4701;DHT22;8724;51.272;6.554;2022-12-08T02:58:08;7.70;99.90
4701;DHT22;8724;51.272;6.554;2022-12-08T03:00:50;7.70;99.90
4701;DHT22;8724;51.272;6.554;2022-12-08T03:03:27;7.70;99.90
4701;DHT22;8724;51.272;6.554;2022-12-08T03:06:04;7.70;99.90
4701;DHT22;8724;51.272;6.554;2022-12-08T03:08:43;7.70;99.90
4701;DHT22;8724;51.272;6.554;2022-12-08T03:11:17;7.70;99.90
4701;DHT22;8724;51.272;6.554;2022-12-08T03:13:50;7.70;99.90
4701;DHT22;8724;51.272;6.554;2022-12-08T03:16:22;7.70;99.90
4701;DHT22;8724;51.272;6.554;2022-12-08T03:18:55;7.60;99.90
4701;DHT22;8724;51.272;6.554;2022-12-08T03:21:28;7.60;99.90
4701;DHT22;8724;51.272;6.554;2022-12-08T03:23:57;7.60;99.90
4701;DHT22;8724;51.272;6.554;2022-12-08T03:26:30;7.60;99.90
4701;DHT22;8724;51.272;6.554;2022-12-08T03:29:01;7.60;99.90
4701;DHT22;8724;51.272;6.554;2022-12-08T03:31:33;7.60;99.90
4701;DHT22;8724;51.272;6.554;2022-12-08T03:34:05;7.60;99.90
4701;DHT22;8724;51.272;6.554;2022-12-08T03:36:35;7.60;99.90
4701;DHT22;8724;51.272;6.554;2022-12-08T03:39:04;7.60;99.90
4701;DHT22;8724;51.272;6.554;2022-12-08T03:41:32;7.60;99.90
4701;DHT22;8724;51.272;6.554;2022-12-08T03:44:01;7.60;99.90
4701;DHT22;8724;51.272;6.554;2022-12-08T03:46:30;7.60;99.90
4701;DHT22;8724;51.272;6.554;2022-12-08T03:48:58;7.60;99.90
4701;DHT22;8724;51.272;6.554;2022-12-08T03:51:26;7.90;99.90
4701;DHT22;8724;51.272;6.554;2022-12-08T03:53:56;7.60;99.90
4701;DHT22;8724;51.272;6.554;2022-12-08T03:56:26;7.60;99.90
4701;DHT22;8724;51.272;6.554;2022-12-08T03:58:55;7.70;99.90
4701;DHT22;8724;51.272;6.554;2022-12-08T04:01:23;7.70;99.90
4701;DHT22;8724;51.272;6.554;2022-12-08T04:03:52;7.70;99.90
4701;DHT22;8724;51.272;6.554;2022-12-08T04:06:21;7.70;99.90
4701;DHT22;8724;51.272;6.554;2022-12-08T04:08:49;7.70;99.90
4701;DHT22;8724;51.272;6.554;2022-12-08T04:11:19;7.70;99.90
4701;DHT22;8724;51.272;6.554;2022-12-08T04:13:48;7.70;99.90
4701;DHT22;8724;51.272;6.554;2022-12-08T04:16:18;7.70;99.90
4701;DHT22;8724;51.272;6.554;2022-12-08T04:18:47;7.70;99.90
4701;DHT22;8724;51.272;6.554;2022-12-08T04:21:16;7.60;99.90
4701;DHT22;8724;51.272;6.554;2022-12-08T04:23:44;7.70;99.90
4701;DHT22;8724;51.272;6.554;2022-12-08T04:26:13;7.70;99.90
4701;DHT22;8724;51.272;6.554;2022-12-08T04:28:43;7.70;99.90
4701;DHT22;8724;51.272;6.554;2022-12-08T04:31:11;7.80;99.90
4701;DHT22;8724;51.272;6.554;2022-12-08T04:33:40;7.70;99.90
4701;DHT22;8724;51.272;6.554;2022-12-08T04:36:09;7.60;99.90
4701;DHT22;8724;51.272;6.554;2022-12-08T04:38:37;7.60;99.90
4701;DHT22;8724;51.272;6.554;2022-12-08T04:41:06;7.60;99.90
4701;DHT22;8724;51.272;6.554;2022-12-08T04:43:34;7.60;99.90
4701;DHT22;8724;51.272;6.554;2022-12-08T04:46:06;7.60;99.90
4701;DHT22;8724;51.272;6.554;2022-12-08T04:48:36;7.60;99.90
4701;DHT22;8724;51.272;6.554;2022-12-08T04:51:05;7.60;99.90
4701;DHT22;8724;51.272;6.554;2022-12-08T04:53:35;7.60;99.90
4701;DHT22;8724;51.272;6.554;2022-12-08T04:56:12;7.60;99.90
4701;DHT22;8724;51.272;6.554;2022-12-08T04:58:40;7.60;99.90
4701;DHT22;8724;51.272;6.554;2022-12-08T05:01:10;7.60;99.90
4701;DHT22;8724;51.272;6.554;2022-12-08T05:03:38;7.60;99.90
4701;DHT22;8724;51.272;6.554;2022-12-08T05:06:09;7.80;99.90
4701;DHT22;8724;51.272;6.554;2022-12-08T05:08:39;7.60;99.90
4701;DHT22;8724;51.272;6.554;2022-12-08T05:11:09;7.60;99.90
4701;DHT22;8724;51.272;6.554;2022-12-08T05:13:38;7.60;99.90
4701;DHT22;8724;51.272;6.554;2022-12-08T05:16:08;7.60;99.90
4701;DHT22;8724;51.272;6.554;2022-12-08T05:18:39;7.60;99.90
4701;DHT22;8724;51.272;6.554;2022-12-08T05:21:08;7.60;99.90
4701;DHT22;8724;51.272;6.554;2022-12-08T05:23:37;7.60;99.90
4701;DHT22;8724;51.272;6.554;2022-12-08T05:26:05;7.60;99.90
4701;DHT22;8724;51.272;6.554;2022-12-08T05:28:33;7.50;99.90
4701;DHT22;8724;51.272;6.554;2022-12-08T05:31:11;7.50;99.90
4701;DHT22;8724;51.272;6.554;2022-12-08T05:33:42;7.50;99.90
4701;DHT22;8724;51.272;6.554;2022-12-08T05:36:11;7.50;99.90
4701;DHT22;8724;51.272;6.554;2022-12-08T05:38:40;7.50;99.90
4701;DHT22;8724;51.272;6.554;2022-12-08T05:41:13;7.50;99.90
4701;DHT22;8724;51.272;6.554;2022-12-08T05:43:41;7.50;99.90
4701;DHT22;8724;51.272;6.554;2022-12-08T05:46:10;7.90;99.90
4701;DHT22;8724;51.272;6.554;2022-12-08T05:48:39;7.60;99.90
4701;DHT22;8724;51.272;6.554;2022-12-08T05:51:16;7.60;99.90
4701;DHT22;8724;51.272;6.554;2022-12-08T05:53:46;7.60;99.90
4701;DHT22;8724;51.272;6.554;2022-12-08T05:56:14;7.60;99.90
4701;DHT22;8724;51.272;6.554;2022-12-08T05:58:43;7.60;99.90
4701;DHT22;8724;51.272;6.554;2022-12-08T06:01:18;7.60;99.90
4701;DHT22;8724;51.272;6.554;2022-12-08T06:03:46;7.60;99.90
4701;DHT22;8724;51.272;6.554;2022-12-08T06:06:16;7.60;99.90
4701;DHT22;8724;51.272;6.554;2022-12-08T06:08:44;7.60;99.90
4701;DHT22;8724;51.272;6.554;2022-12-08T06:11:17;7.60;99.90
4701;DHT22;8724;51.272;6.554;2022-12-08T06:13:46;7.60;99.90
4701;DHT22;8724;51.272;6.554;2022-12-08T06:16:14;7.70;99.90
4701;DHT22;8724;51.272;6.554;2022-12-08T06:18:43;7.50;99.90
4701;DHT22;8724;51.272;6.554;2022-12-08T06:21:12;7.60;99.90
4701;DHT22;8724;51.272;6.554;2022-12-08T06:23:43;7.60;99.90
4701;DHT22;8724;51.272;6.554;2022-12-08T06:26:12;7.50;99.90
4701;DHT22;8724;51.272;6.554;2022-12-08T06:28:42;7.50;99.90
4701;DHT22;8724;51.272;6.554;2022-12-08T06:31:13;7.50;99.90
4701;DHT22;8724;51.272;6.554;2022-12-08T06:33:45;7.70;99.90
4701;DHT22;8724;51.272;6.554;2022-12-08T06:36:16;7.50;99.90
4701;DHT22;8724;51.272;6.554;2022-12-08T06:38:46;7.50;99.90
4701;DHT22;8724;51.272;6.554;2022-12-08T06:41:15;7.50;99.90
4701;DHT22;8724;51.272;6.554;2022-12-08T06:43:44;7.50;99.90
4701;DHT22;8724;51.272;6.554;2022-12-08T06:46:14;7.80;99.90
4701;DHT22;8724;51.272;6.554;2022-12-08T06:48:43;7.60;99.90
4701;DHT22;8724;51.272;6.554;2022-12-08T06:51:13;7.40;99.90
4701;DHT22;8724;51.272;6.554;2022-12-08T06:53:46;7.40;99.90
4701;DHT22;8724;51.272;6.554;2022-12-08T06:56:15;7.40;99.90
4701;DHT22;8724;51.272;6.554;2022-12-08T06:58:46;7.40;99.90
4701;DHT22;8724;51.272;6.554;2022-12-08T07:01:19;7.40;99.90
4701;DHT22;8724;51.272;6.554;2022-12-08T07:03:47;7.30;99.90
4701;DHT22;8724;51.272;6.554;2022-12-08T07:06:19;7.30;99.90
4701;DHT22;8724;51.272;6.554;2022-12-08T07:08:49;7.30;99.90
4701;DHT22;8724;51.272;6.554;2022-12-08T07:11:18;7.40;99.90
4701;DHT22;8724;51.272;6.554;2022-12-08T07:13:48;7.40;99.90
4701;DHT22;8724;51.272;6.554;2022-12-08T07:16:17;7.40;99.90
4701;DHT22;8724;51.272;6.554;2022-12-08T07:18:46;7.40;99.90
4701;DHT22;8724;51.272;6.554;2022-12-08T07:21:16;7.40;99.90
4701;DHT22;8724;51.272;6.554;2022-12-08T07:23:45;7.30;99.90
4701;DHT22;8724;51.272;6.554;2022-12-08T07:26:24;7.30;99.90
4701;DHT22;8724;51.272;6.554;2022-12-08T07:28:53;7.30;99.90
4701;DHT22;8724;51.272;6.554;2022-12-08T07:31:23;7.30;99.90
4701;DHT22;8724;51.272;6.554;2022-12-08T07:33:51;7.30;99.90
4701;DHT22;8724;51.272;6.554;2022-12-08T07:36:20;7.30;99.90
4701;DHT22;8724;51.272;6.554;2022-12-08T07:38:49;7.30;99.90
4701;DHT22;8724;51.272;6.554;2022-12-08T07:41:20;7.40;99.90
4701;DHT22;8724;51.272;6.554;2022-12-08T07:43:51;7.30;99.90
4701;DHT22;8724;51.272;6.554;2022-12-08T07:46:21;7.30;99.90
4701;DHT22;8724;51.272;6.554;2022-12-08T07:48:51;7.30;99.90
4701;DHT22;8724;51.272;6.554;2022-12-08T07:51:19;7.30;99.90
4701;DHT22;8724;51.272;6.554;2022-12-08T07:53:49;7.30;99.90
4701;DHT22;8724;51.272;6.554;2022-12-08T07:56:21;7.30;99.90
4701;DHT22;8724;51.272;6.554;2022-12-08T07:58:51;7.40;99.90
4701;DHT22;8724;51.272;6.554;2022-12-08T08:01:22;7.30;99.90
4701;DHT22;8724;51.272;6.554;2022-12-08T08:03:52;7.40;99.90
4701;DHT22;8724;51.272;6.554;2022-12-08T08:06:21;7.40;99.90
4701;DHT22;8724;51.272;6.554;2022-12-08T08:08:51;7.30;99.90
4701;DHT22;8724;51.272;6.554;2022-12-08T08:11:19;7.30;99.90
4701;DHT22;8724;51.272;6.554;2022-12-08T08:13:48;7.30;99.90
4701;DHT22;8724;51.272;6.554;2022-12-08T08:16:18;7.30;99.90
4701;DHT22;8724;51.272;6.554;2022-12-08T08:18:48;7.30;99.90
4701;DHT22;8724;51.272;6.554;2022-12-08T08:21:18;7.40;99.90
4701;DHT22;8724;51.272;6.554;2022-12-08T08:24:06;7.40;99.90
4701;DHT22;8724;51.272;6.554;2022-12-08T08:26:35;7.40;99.90
4701;DHT22;8724;51.272;6.554;2022-12-08T08:29:03;7.40;99.90
4701;DHT22;8724;51.272;6.554;2022-12-08T08:31:33;7.40;99.90
4701;DHT22;8724;51.272;6.554;2022-12-08T08:34:01;7.40;99.90
4701;DHT22;8724;51.272;6.554;2022-12-08T08:36:32;7.40;99.90
4701;DHT22;8724;51.272;6.554;2022-12-08T08:39:00;7.40;99.90
4701;DHT22;8724;51.272;6.554;2022-12-08T08:41:29;7.40;99.90
4701;DHT22;8724;51.272;6.554;2022-12-08T08:43:57;7.40;99.90
4701;DHT22;8724;51.272;6.554;2022-12-08T08:46:26;7.40;99.90
4701;DHT22;8724;51.272;6.554;2022-12-08T08:48:56;7.40;99.90
4701;DHT22;8724;51.272;6.554;2022-12-08T08:51:24;7.40;99.90
4701;DHT22;8724;51.272;6.554;2022-12-08T08:53:52;7.50;99.90
4701;DHT22;8724;51.272;6.554;2022-12-08T08:56:21;7.50;99.90
4701;DHT22;8724;51.272;6.554;2022-12-08T08:58:51;7.50;99.90
4701;DHT22;8724;51.272;6.554;2022-12-08T09:01:22;7.50;99.90
4701;DHT22;8724;51.272;6.554;2022-12-08T09:03:51;7.30;99.90
4701;DHT22;8724;51.272;6.554;2022-12-08T09:06:22;7.40;99.90
4701;DHT22;8724;51.272;6.554;2022-12-08T09:08:50;7.40;99.90
4701;DHT22;8724;51.272;6.554;2022-12-08T09:11:19;7.40;99.90
4701;DHT22;8724;51.272;6.554;2022-12-08T09:13:49;7.40;99.90
4701;DHT22;8724;51.272;6.554;2022-12-08T09:16:18;7.40;99.90
4701;DHT22;8724;51.272;6.554;2022-12-08T09:18:47;7.40;99.90
4701;DHT22;8724;51.272;6.554;2022-12-08T09:21:18;7.40;99.90
4701;DHT22;8724;51.272;6.554;2022-12-08T09:23:51;7.40;99.90
4701;DHT22;8724;51.272;6.554;2022-12-08T09:26:20;7.40;99.90
4701;DHT22;8724;51.272;6.554;2022-12-08T09:28:49;7.40;99.90
4701;DHT22;8724;51.272;6.554;2022-12-08T09:31:19;7.40;99.90
4701;DHT22;8724;51.272;6.554;2022-12-08T09:33:48;7.40;99.90
4701;DHT22;8724;51.272;6.554;2022-12-08T09:36:17;7.40;99.90
4701;DHT22;8724;51.272;6.554;2022-12-08T09:38:46;7.40;99.90
4701;DHT22;8724;51.272;6.554;2022-12-08T09:41:21;7.40;99.90
4701;DHT22;8724;51.272;6.554;2022-12-08T09:43:59;7.40;99.90
4701;DHT22;8724;51.272;6.554;2022-12-08T09:46:31;7.40;99.90
4701;DHT22;8724;51.272;6.554;2022-12-08T09:49:01;7.40;99.90
4701;DHT22;8724;51.272;6.554;2022-12-08T09:51:34;7.30;99.90
4701;DHT22;8724;51.272;6.554;2022-12-08T09:54:08;7.30;99.90
4701;DHT22;8724;51.272;6.554;2022-12-08T09:56:40;7.40;99.90
4701;DHT22;8724;51.272;6.554;2022-12-08T09:59:20;7.40;99.90
4701;DHT22;8724;51.272;6.554;2022-12-08T10:01:49;7.40;99.90
4701;DHT22;8724;51.272;6.554;2022-12-08T10:04:23;7.40;99.90
4701;DHT22;8724;51.272;6.554;2022-12-08T10:06:59;7.40;99.90
4701;DHT22;8724;51.272;6.554;2022-12-08T10:09:37;7.40;99.90
4701;DHT22;8724;51.272;6.554;2022-12-08T10:12:13;7.40;99.90
4701;DHT22;8724;51.272;6.554;2022-12-08T10:14:46;7.40;99.90
4701;DHT22;8724;51.272;6.554;2022-12-08T10:17:24;7.40;99.90
4701;DHT22;8724;51.272;6.554;2022-12-08T10:19:58;7.40;99.90
4701;DHT22;8724;51.272;6.554;2022-12-08T10:22:32;7.50;99.90
4701;DHT22;8724;51.272;6.554;2022-12-08T10:25:14;7.40;99.90
4701;DHT22;8724;51.272;6.554;2022-12-08T10:27:46;7.40;99.90
4701;DHT22;8724;51.272;6.554;2022-12-08T10:30:17;7.40;99.90
4701;DHT22;8724;51.272;6.554;2022-12-08T10:32:47;7.40;99.90
4701;DHT22;8724;51.272;6.554;2022-12-08T10:35:18;7.50;99.90
4701;DHT22;8724;51.272;6.554;2022-12-08T10:37:54;7.40;99.90
4701;DHT22;8724;51.272;6.554;2022-12-08T10:40:27;7.40;99.90
4701;DHT22;8724;51.272;6.554;2022-12-08T10:42:58;7.50;99.90
4701;DHT22;8724;51.272;6.554;2022-12-08T10:45:28;7.40;99.90
4701;DHT22;8724;51.272;6.554;2022-12-08T10:48:00;7.40;99.90
4701;DHT22;8724;51.272;6.554;2022-12-08T10:50:31;7.50;99.90
4701;DHT22;8724;51.272;6.554;2022-12-08T10:53:01;7.40;99.90
4701;DHT22;8724;51.272;6.554;2022-12-08T10:55:40;7.50;99.90
4701;DHT22;8724;51.272;6.554;2022-12-08T10:58:28;7.40;99.90
4701;DHT22;8724;51.272;6.554;2022-12-08T11:01:00;7.50;99.90
4701;DHT22;8724;51.272;6.554;2022-12-08T11:03:31;7.50;99.90
4701;DHT22;8724;51.272;6.554;2022-12-08T11:06:09;7.50;99.90
4701;DHT22;8724;51.272;6.554;2022-12-08T11:08:48;7.50;99.90
4701;DHT22;8724;51.272;6.554;2022-12-08T11:11:18;7.50;99.90
4701;DHT22;8724;51.272;6.554;2022-12-08T11:13:56;7.50;99.90
4701;DHT22;8724;51.272;6.554;2022-12-08T11:16:24;7.50;99.90
4701;DHT22;8724;51.272;6.554;2022-12-08T11:18:56;7.50;99.90
4701;DHT22;8724;51.272;6.554;2022-12-08T11:21:34;7.50;99.90
4701;DHT22;8724;51.272;6.554;2022-12-08T11:24:20;7.50;99.90
4701;DHT22;8724;51.272;6.554;2022-12-08T11:26:53;7.50;99.90
4701;DHT22;8724;51.272;6.554;2022-12-08T11:29:26;7.50;99.90
4701;DHT22;8724;51.272;6.554;2022-12-08T11:31:57;7.50;99.90
4701;DHT22;8724;51.272;6.554;2022-12-08T11:34:31;7.50;99.90
4701;DHT22;8724;51.272;6.554;2022-12-08T11:37:03;7.50;99.90
4701;DHT22;8724;51.272;6.554;2022-12-08T11:39:34;7.50;99.90
4701;DHT22;8724;51.272;6.554;2022-12-08T11:42:06;7.50;99.90
4701;DHT22;8724;51.272;6.554;2022-12-08T11:44:41;7.50;99.90
4701;DHT22;8724;51.272;6.554;2022-12-08T11:47:14;7.50;99.90
4701;DHT22;8724;51.272;6.554;2022-12-08T11:49:46;7.50;99.90
4701;DHT22;8724;51.272;6.554;2022-12-08T11:52:23;7.50;99.90
4701;DHT22;8724;51.272;6.554;2022-12-08T11:54:58;7.50;99.90
4701;DHT22;8724;51.272;6.554;2022-12-08T11:57:28;7.50;99.90
4701;DHT22;8724;51.272;6.554;2022-12-08T12:00:00;7.50;99.90
4701;DHT22;8724;51.272;6.554;2022-12-08T12:02:42;7.50;99.90
4701;DHT22;8724;51.272;6.554;2022-12-08T12:05:28;7.50;99.90
4701;DHT22;8724;51.272;6.554;2022-12-08T12:08:30;7.50;99.90
4701;DHT22;8724;51.272;6.554;2022-12-08T12:11:08;7.50;99.90
4701;DHT22;8724;51.272;6.554;2022-12-08T12:14:12;7.50;99.90
4701;DHT22;8724;51.272;6.554;2022-12-08T12:16:58;7.50;99.90
4701;DHT22;8724;51.272;6.554;2022-12-08T12:19:32;7.50;99.90
4701;DHT22;8724;51.272;6.554;2022-12-08T12:22:12;7.50;99.90
4701;DHT22;8724;51.272;6.554;2022-12-08T12:24:47;7.50;99.90
4701;DHT22;8724;51.272;6.554;2022-12-08T12:27:24;7.50;99.90
4701;DHT22;8724;51.272;6.554;2022-12-08T12:29:57;7.50;99.90
4701;DHT22;8724;51.272;6.554;2022-12-08T12:32:40;7.50;99.90
4701;DHT22;8724;51.272;6.554;2022-12-08T12:35:15;7.50;99.90
4701;DHT22;8724;51.272;6.554;2022-12-08T12:37:56;7.50;99.90
4701;DHT22;8724;51.272;6.554;2022-12-08T12:40:27;7.50;99.90
4701;DHT22;8724;51.272;6.554;2022-12-08T12:43:24;7.40;99.90
4701;DHT22;8724;51.272;6.554;2022-12-08T12:52:37;7.50;99.90
4701;DHT22;8724;51.272;6.554;2022-12-08T12:55:24;7.40;99.90
4701;DHT22;8724;51.272;6.554;2022-12-08T12:57:54;7.50;99.90
4701;DHT22;8724;51.272;6.554;2022-12-08T13:00:23;7.40;99.90
4701;DHT22;8724;51.272;6.554;2022-12-08T13:02:54;7.50;99.90
4701;DHT22;8724;51.272;6.554;2022-12-08T13:05:27;7.50;99.90
4701;DHT22;8724;51.272;6.554;2022-12-08T13:07:57;7.50;99.90
4701;DHT22;8724;51.272;6.554;2022-12-08T13:10:28;7.50;99.90
4701;DHT22;8724;51.272;6.554;2022-12-08T13:13:16;7.50;99.90
4701;DHT22;8724;51.272;6.554;2022-12-08T13:15:49;7.50;99.90
4701;DHT22;8724;51.272;6.554;2022-12-08T13:18:22;7.50;99.90
4701;DHT22;8724;51.272;6.554;2022-12-08T13:21:02;7.60;99.90
4701;DHT22;8724;51.272;6.554;2022-12-08T13:23:43;7.60;99.90
4701;DHT22;8724;51.272;6.554;2022-12-08T13:26:20;7.60;99.90
4701;DHT22;8724;51.272;6.554;2022-12-08T13:29:20;7.60;99.90
4701;DHT22;8724;51.272;6.554;2022-12-08T13:31:50;7.60;99.90
4701;DHT22;8724;51.272;6.554;2022-12-08T13:34:23;7.60;99.90
4701;DHT22;8724;51.272;6.554;2022-12-08T13:37:06;7.70;99.90
4701;DHT22;8724;51.272;6.554;2022-12-08T13:39:42;7.60;99.90
4701;DHT22;8724;51.272;6.554;2022-12-08T13:42:19;7.60;99.90
4701;DHT22;8724;51.272;6.554;2022-12-08T13:44:51;7.60;99.90
4701;DHT22;8724;51.272;6.554;2022-12-08T13:47:44;7.50;99.90
4701;DHT22;8724;51.272;6.554;2022-12-08T13:50:38;7.50;99.90
4701;DHT22;8724;51.272;6.554;2022-12-08T13:53:31;7.60;99.90
4701;DHT22;8724;51.272;6.554;2022-12-08T13:56:24;7.60;99.90
4701;DHT22;8724;51.272;6.554;2022-12-08T13:59:26;7.50;99.90
4701;DHT22;8724;51.272;6.554;2022-12-08T14:01:58;7.60;99.90
4701;DHT22;8724;51.272;6.554;2022-12-08T14:04:28;7.60;99.90
4701;DHT22;8724;51.272;6.554;2022-12-08T14:07:16;7.60;99.90
4701;DHT22;8724;51.272;6.554;2022-12-08T14:09:46;7.60;99.90
4701;DHT22;8724;51.272;6.554;2022-12-08T14:12:18;7.60;99.90
4701;DHT22;8724;51.272;6.554;2022-12-08T14:14:49;7.60;99.90
4701;DHT22;8724;51.272;6.554;2022-12-08T14:17:34;7.60;99.90
4701;DHT22;8724;51.272;6.554;2022-12-08T14:20:21;7.60;99.90
4701;DHT22;8724;51.272;6.554;2022-12-08T14:22:51;7.60;99.90
4701;DHT22;8724;51.272;6.554;2022-12-08T14:25:22;7.60;99.90
4701;DHT22;8724;51.272;6.554;2022-12-08T14:27:55;7.60;99.90
4701;DHT22;8724;51.272;6.554;2022-12-08T14:30:29;7.60;99.90
4701;DHT22;8724;51.272;6.554;2022-12-08T14:32:58;7.60;99.90
4701;DHT22;8724;51.272;6.554;2022-12-08T14:35:28;7.60;99.90
4701;DHT22;8724;51.272;6.554;2022-12-08T14:37:59;7.60;99.90
4701;DHT22;8724;51.272;6.554;2022-12-08T14:40:32;7.60;99.90
4701;DHT22;8724;51.272;6.554;2022-12-08T14:43:16;7.60;99.90
4701;DHT22;8724;51.272;6.554;2022-12-08T14:45:47;7.70;99.90
4701;DHT22;8724;51.272;6.554;2022-12-08T14:48:23;7.60;99.90
4701;DHT22;8724;51.272;6.554;2022-12-08T14:51:03;7.60;99.90
4701;DHT22;8724;51.272;6.554;2022-12-08T14:53:38;7.60;99.90
4701;DHT22;8724;51.272;6.554;2022-12-08T14:56:16;7.60;99.90
4701;DHT22;8724;51.272;6.554;2022-12-08T14:58:46;7.60;99.90
4701;DHT22;8724;51.272;6.554;2022-12-08T15:01:17;7.60;99.90
4701;DHT22;8724;51.272;6.554;2022-12-08T15:03:48;7.60;99.90
4701;DHT22;8724;51.272;6.554;2022-12-08T15:06:19;7.60;99.90
4701;DHT22;8724;51.272;6.554;2022-12-08T15:08:54;7.60;99.90
4701;DHT22;8724;51.272;6.554;2022-12-08T15:11:31;7.60;99.90
4701;DHT22;8724;51.272;6.554;2022-12-08T15:13:59;7.60;99.90
4701;DHT22;8724;51.272;6.554;2022-12-08T15:16:30;7.60;99.90
4701;DHT22;8724;51.272;6.554;2022-12-08T15:19:02;7.60;99.90
4701;DHT22;8724;51.272;6.554;2022-12-08T15:21:35;7.60;99.90
4701;DHT22;8724;51.272;6.554;2022-12-08T15:24:05;7.70;99.90
4701;DHT22;8724;51.272;6.554;2022-12-08T15:26:39;7.60;99.90
4701;DHT22;8724;51.272;6.554;2022-12-08T15:29:17;7.60;99.90
4701;DHT22;8724;51.272;6.554;2022-12-08T15:31:46;7.60;99.90
4701;DHT22;8724;51.272;6.554;2022-12-08T15:34:14;7.60;99.90
4701;DHT22;8724;51.272;6.554;2022-12-08T15:36:43;7.70;99.90
4701;DHT22;8724;51.272;6.554;2022-12-08T15:39:22;7.90;99.90
4701;DHT22;8724;51.272;6.554;2022-12-08T15:41:53;7.70;99.90
4701;DHT22;8724;51.272;6.554;2022-12-08T15:44:21;7.70;99.90
4701;DHT22;8724;51.272;6.554;2022-12-08T15:46:50;7.70;99.90
4701;DHT22;8724;51.272;6.554;2022-12-08T15:49:20;7.70;99.90
4701;DHT22;8724;51.272;6.554;2022-12-08T15:51:51;7.70;99.90
4701;DHT22;8724;51.272;6.554;2022-12-08T15:54:36;7.70;99.90
4701;DHT22;8724;51.272;6.554;2022-12-08T15:57:09;7.70;99.90
4701;DHT22;8724;51.272;6.554;2022-12-08T16:00:03;7.70;99.90
4701;DHT22;8724;51.272;6.554;2022-12-08T16:02:41;7.60;99.90
4701;DHT22;8724;51.272;6.554;2022-12-08T16:05:30;7.70;99.90
4701;DHT22;8724;51.272;6.554;2022-12-08T16:08:13;7.70;99.90
4701;DHT22;8724;51.272;6.554;2022-12-08T16:11:02;7.60;99.90
4701;DHT22;8724;51.272;6.554;2022-12-08T16:14:05;7.60;99.90
4701;DHT22;8724;51.272;6.554;2022-12-08T16:16:53;7.60;99.90
4701;DHT22;8724;51.272;6.554;2022-12-08T16:19:22;7.60;99.90
4701;DHT22;8724;51.272;6.554;2022-12-08T16:21:50;7.80;99.90
4701;DHT22;8724;51.272;6.554;2022-12-08T16:24:39;7.60;99.90
4701;DHT22;8724;51.272;6.554;2022-12-08T16:27:08;7.60;99.90
4701;DHT22;8724;51.272;6.554;2022-12-08T16:30:00;7.60;99.90
4701;DHT22;8724;51.272;6.554;2022-12-08T16:32:28;7.60;99.90
4701;DHT22;8724;51.272;6.554;2022-12-08T16:34:57;7.60;99.90
4701;DHT22;8724;51.272;6.554;2022-12-08T16:37:26;7.60;99.90
4701;DHT22;8724;51.272;6.554;2022-12-08T16:39:58;7.60;99.90
4701;DHT22;8724;51.272;6.554;2022-12-08T16:42:28;7.60;99.90
4701;DHT22;8724;51.272;6.554;2022-12-08T16:45:16;7.60;99.90
4701;DHT22;8724;51.272;6.554;2022-12-08T16:47:46;7.60;99.90
4701;DHT22;8724;51.272;6.554;2022-12-08T16:50:16;7.70;99.90
4701;DHT22;8724;51.272;6.554;2022-12-08T16:52:45;7.80;99.90
4701;DHT22;8724;51.272;6.554;2022-12-08T16:55:16;7.60;99.90
4701;DHT22;8724;51.272;6.554;2022-12-08T16:57:45;7.60;99.90
4701;DHT22;8724;51.272;6.554;2022-12-08T17:00:17;7.60;99.90
4701;DHT22;8724;51.272;6.554;2022-12-08T17:02:46;7.60;99.90
4701;DHT22;8724;51.272;6.554;2022-12-08T17:05:16;7.60;99.90